Search for airport 
image banner adimage banner adimage banner ad
image banner ad

2PA6 - The Old Commonwealth Aerodrome

Located in Shartlesville, United States

ICAO - 2PA6, IATA -

Data provided by Airmate  

General information

Coordinates: N40°29'28" W76°5'52"
Elevation is 540 feet MSL.
Magnetic variation is -11° East
View others Airports in Pennsylvania

Operational data

Special qualification required
Current time UTC:
Current local time:
METAR: KRDG 132054Z 19004KT 10SM -RA OVC024 24/19 A2986 RMK AO2 RAB35 SLP115 P0000 60000 T02390189 58010 $
TAF: KRDG 131728Z 1318/1418 18004KT P6SM BKN025 FM140100 19004KT P6SM -SHRA OVC025 FM140700 VRB03KT 4SM -SHRA BR OVC015 FM141700 24005KT P6SM BKN012
View NOTAMs / SUP AIP / TFR affecting this airport [VIEW]
Communications frequencies: [VIEW]

Runways:

RWY identifierQFULength (ft)Width (ft)SurfaceLDA (ft)
181050100GRASS
361050100GRASS

Airport contact information

Address: Shartlesville United States

Satellite view of 2PA6